sensor_id;sensor_type;location;lat;lon;timestamp;temperature;humidity
13960;DHT22;7052;51.050;3.716;2023-06-10T00:02:16;23.30;53.60
13960;DHT22;7052;51.050;3.716;2023-06-10T00:04:44;23.20;53.10
13960;DHT22;7052;51.050;3.716;2023-06-10T00:07:16;23.20;53.30
13960;DHT22;7052;51.050;3.716;2023-06-10T00:09:43;23.10;53.50
13960;DHT22;7052;51.050;3.716;2023-06-10T00:12:11;23.10;53.60
13960;DHT22;7052;51.050;3.716;2023-06-10T00:14:39;23.10;53.70
13960;DHT22;7052;51.050;3.716;2023-06-10T00:17:07;23.10;53.90
13960;DHT22;7052;51.050;3.716;2023-06-10T00:19:42;23.00;54.00
13960;DHT22;7052;51.050;3.716;2023-06-10T00:22:10;23.00;54.00
13960;DHT22;7052;51.050;3.716;2023-06-10T00:24:47;23.00;54.20
13960;DHT22;7052;51.050;3.716;2023-06-10T00:27:17;22.90;54.10
13960;DHT22;7052;51.050;3.716;2023-06-10T00:29:51;22.90;54.30
13960;DHT22;7052;51.050;3.716;2023-06-10T00:32:18;22.90;54.20
13960;DHT22;7052;51.050;3.716;2023-06-10T00:34:49;22.90;54.10
13960;DHT22;7052;51.050;3.716;2023-06-10T00:37:18;22.80;54.20
13960;DHT22;7052;51.050;3.716;2023-06-10T00:40:02;22.80;54.30
13960;DHT22;7052;51.050;3.716;2023-06-10T00:42:29;22.80;54.40
13960;DHT22;7052;51.050;3.716;2023-06-10T00:44:56;22.70;54.40
13960;DHT22;7052;51.050;3.716;2023-06-10T00:47:24;22.70;54.50
13960;DHT22;7052;51.050;3.716;2023-06-10T00:49:53;22.70;54.60
13960;DHT22;7052;51.050;3.716;2023-06-10T00:52:22;22.70;54.70
13960;DHT22;7052;51.050;3.716;2023-06-10T00:54:51;22.60;54.70
13960;DHT22;7052;51.050;3.716;2023-06-10T00:57:19;22.60;54.80
13960;DHT22;7052;51.050;3.716;2023-06-10T00:59:48;22.60;55.40
13960;DHT22;7052;51.050;3.716;2023-06-10T01:02:15;22.60;55.00
13960;DHT22;7052;51.050;3.716;2023-06-10T01:04:43;22.50;54.90
13960;DHT22;7052;51.050;3.716;2023-06-10T01:07:21;22.50;55.10
13960;DHT22;7052;51.050;3.716;2023-06-10T01:10:01;22.50;55.20
13960;DHT22;7052;51.050;3.716;2023-06-10T01:12:33;22.40;55.20
13960;DHT22;7052;51.050;3.716;2023-06-10T01:15:01;22.40;55.40
13960;DHT22;7052;51.050;3.716;2023-06-10T01:17:31;22.40;55.40
13960;DHT22;7052;51.050;3.716;2023-06-10T01:19:59;22.40;55.60
13960;DHT22;7052;51.050;3.716;2023-06-10T01:22:38;22.30;55.80
13960;DHT22;7052;51.050;3.716;2023-06-10T01:25:07;22.30;55.90
13960;DHT22;7052;51.050;3.716;2023-06-10T01:27:37;22.30;56.10
13960;DHT22;7052;51.050;3.716;2023-06-10T01:30:10;22.20;56.20
13960;DHT22;7052;51.050;3.716;2023-06-10T01:32:43;22.20;56.30
13960;DHT22;7052;51.050;3.716;2023-06-10T01:35:12;22.20;56.50
13960;DHT22;7052;51.050;3.716;2023-06-10T01:37:43;22.10;56.60
13960;DHT22;7052;51.050;3.716;2023-06-10T01:40:12;22.10;56.80
13960;DHT22;7052;51.050;3.716;2023-06-10T01:42:40;22.10;56.90
13960;DHT22;7052;51.050;3.716;2023-06-10T01:45:08;22.20;57.20
13960;DHT22;7052;51.050;3.716;2023-06-10T01:47:35;22.10;57.40
13960;DHT22;7052;51.050;3.716;2023-06-10T01:50:05;22.00;57.50
13960;DHT22;7052;51.050;3.716;2023-06-10T01:52:33;22.00;57.70
13960;DHT22;7052;51.050;3.716;2023-06-10T01:55:05;22.00;57.90
13960;DHT22;7052;51.050;3.716;2023-06-10T01:57:32;22.00;58.10
13960;DHT22;7052;51.050;3.716;2023-06-10T02:00:00;22.00;58.90
13960;DHT22;7052;51.050;3.716;2023-06-10T02:02:28;21.90;58.50
13960;DHT22;7052;51.050;3.716;2023-06-10T02:04:55;21.90;58.70
13960;DHT22;7052;51.050;3.716;2023-06-10T02:07:22;21.90;59.00
13960;DHT22;7052;51.050;3.716;2023-06-10T02:09:50;21.80;59.20
13960;DHT22;7052;51.050;3.716;2023-06-10T02:12:18;21.90;59.50
13960;DHT22;7052;51.050;3.716;2023-06-10T02:14:45;21.80;59.80
13960;DHT22;7052;51.050;3.716;2023-06-10T02:17:12;21.80;60.00
13960;DHT22;7052;51.050;3.716;2023-06-10T02:19:40;21.70;60.30
13960;DHT22;7052;51.050;3.716;2023-06-10T02:22:19;21.70;60.70
13960;DHT22;7052;51.050;3.716;2023-06-10T02:24:46;21.70;61.10
13960;DHT22;7052;51.050;3.716;2023-06-10T02:27:15;21.70;61.40
13960;DHT22;7052;51.050;3.716;2023-06-10T02:29:43;21.70;61.80
13960;DHT22;7052;51.050;3.716;2023-06-10T02:32:10;21.60;62.00
13960;DHT22;7052;51.050;3.716;2023-06-10T02:34:37;21.60;62.40
13960;DHT22;7052;51.050;3.716;2023-06-10T02:37:08;21.60;62.60
13960;DHT22;7052;51.050;3.716;2023-06-10T02:39:35;21.50;62.80
13960;DHT22;7052;51.050;3.716;2023-06-10T02:42:16;21.50;63.00
13960;DHT22;7052;51.050;3.716;2023-06-10T02:44:44;21.50;63.40
13960;DHT22;7052;51.050;3.716;2023-06-10T02:47:12;21.50;63.70
13960;DHT22;7052;51.050;3.716;2023-06-10T02:49:38;21.50;64.00
13960;DHT22;7052;51.050;3.716;2023-06-10T02:52:06;21.50;64.30
13960;DHT22;7052;51.050;3.716;2023-06-10T02:54:37;21.40;64.50
13960;DHT22;7052;51.050;3.716;2023-06-10T02:57:04;21.40;64.90
13960;DHT22;7052;51.050;3.716;2023-06-10T02:59:33;21.40;65.20
13960;DHT22;7052;51.050;3.716;2023-06-10T03:02:02;21.40;65.50
13960;DHT22;7052;51.050;3.716;2023-06-10T03:04:29;21.30;65.70
13960;DHT22;7052;51.050;3.716;2023-06-10T03:06:56;21.40;66.10
13960;DHT22;7052;51.050;3.716;2023-06-10T03:09:23;21.30;66.30
13960;DHT22;7052;51.050;3.716;2023-06-10T03:11:52;21.30;66.60
13960;DHT22;7052;51.050;3.716;2023-06-10T03:14:20;21.20;66.70
13960;DHT22;7052;51.050;3.716;2023-06-10T03:16:47;21.20;67.00
13960;DHT22;7052;51.050;3.716;2023-06-10T03:19:16;21.30;67.40
13960;DHT22;7052;51.050;3.716;2023-06-10T03:21:44;21.20;67.60
13960;DHT22;7052;51.050;3.716;2023-06-10T03:24:11;21.20;68.00
13960;DHT22;7052;51.050;3.716;2023-06-10T03:26:38;21.10;68.20
13960;DHT22;7052;51.050;3.716;2023-06-10T03:29:05;21.10;68.50
13960;DHT22;7052;51.050;3.716;2023-06-10T03:31:33;21.10;68.80
13960;DHT22;7052;51.050;3.716;2023-06-10T03:34:00;21.10;69.70
13960;DHT22;7052;51.050;3.716;2023-06-10T03:36:31;21.00;69.30
13960;DHT22;7052;51.050;3.716;2023-06-10T03:38:58;21.00;69.60
13960;DHT22;7052;51.050;3.716;2023-06-10T03:41:26;21.00;69.90
13960;DHT22;7052;51.050;3.716;2023-06-10T03:43:53;21.00;70.20
13960;DHT22;7052;51.050;3.716;2023-06-10T03:46:20;20.90;70.30
13960;DHT22;7052;51.050;3.716;2023-06-10T03:48:48;20.90;70.50
13960;DHT22;7052;51.050;3.716;2023-06-10T03:51:17;20.90;70.80
13960;DHT22;7052;51.050;3.716;2023-06-10T03:53:45;20.90;71.00
13960;DHT22;7052;51.050;3.716;2023-06-10T03:56:12;20.90;71.30
13960;DHT22;7052;51.050;3.716;2023-06-10T03:58:39;20.90;71.60
13960;DHT22;7052;51.050;3.716;2023-06-10T04:01:06;20.90;71.80
13960;DHT22;7052;51.050;3.716;2023-06-10T04:03:35;20.90;72.00
13960;DHT22;7052;51.050;3.716;2023-06-10T04:06:02;20.90;72.10
13960;DHT22;7052;51.050;3.716;2023-06-10T04:08:30;20.80;72.30
13960;DHT22;7052;51.050;3.716;2023-06-10T04:11:00;20.90;72.50
13960;DHT22;7052;51.050;3.716;2023-06-10T04:13:26;20.80;72.60
13960;DHT22;7052;51.050;3.716;2023-06-10T04:15:54;20.80;72.80
13960;DHT22;7052;51.050;3.716;2023-06-10T04:18:21;20.90;73.10
13960;DHT22;7052;51.050;3.716;2023-06-10T04:20:48;20.90;73.20
13960;DHT22;7052;51.050;3.716;2023-06-10T04:23:17;20.80;73.30
13960;DHT22;7052;51.050;3.716;2023-06-10T04:25:44;20.80;73.40
13960;DHT22;7052;51.050;3.716;2023-06-10T04:28:13;20.80;73.50
13960;DHT22;7052;51.050;3.716;2023-06-10T04:30:41;20.80;73.70
13960;DHT22;7052;51.050;3.716;2023-06-10T04:33:09;20.80;73.80
13960;DHT22;7052;51.050;3.716;2023-06-10T04:35:36;20.80;73.90
13960;DHT22;7052;51.050;3.716;2023-06-10T04:38:03;20.90;74.10
13960;DHT22;7052;51.050;3.716;2023-06-10T04:40:30;20.90;74.20
13960;DHT22;7052;51.050;3.716;2023-06-10T04:42:57;20.80;74.20
13960;DHT22;7052;51.050;3.716;2023-06-10T04:45:25;20.90;74.30
13960;DHT22;7052;51.050;3.716;2023-06-10T04:47:57;21.00;74.50
13960;DHT22;7052;51.050;3.716;2023-06-10T04:50:24;21.00;74.50
13960;DHT22;7052;51.050;3.716;2023-06-10T04:52:51;21.00;74.40
13960;DHT22;7052;51.050;3.716;2023-06-10T04:55:19;21.00;74.50
13960;DHT22;7052;51.050;3.716;2023-06-10T04:57:47;21.00;74.40
13960;DHT22;7052;51.050;3.716;2023-06-10T05:00:14;21.00;74.40
13960;DHT22;7052;51.050;3.716;2023-06-10T05:02:43;21.10;74.30
13960;DHT22;7052;51.050;3.716;2023-06-10T05:05:15;21.20;74.30
13960;DHT22;7052;51.050;3.716;2023-06-10T05:07:42;21.10;74.10
13960;DHT22;7052;51.050;3.716;2023-06-10T05:10:09;21.20;74.20
13960;DHT22;7052;51.050;3.716;2023-06-10T05:12:37;21.20;74.00
13960;DHT22;7052;51.050;3.716;2023-06-10T05:15:05;21.30;73.70
13960;DHT22;7052;51.050;3.716;2023-06-10T05:17:35;21.30;73.70
13960;DHT22;7052;51.050;3.716;2023-06-10T05:20:06;21.40;73.60
13960;DHT22;7052;51.050;3.716;2023-06-10T05:22:34;21.40;73.50
13960;DHT22;7052;51.050;3.716;2023-06-10T05:25:01;21.40;73.50
13960;DHT22;7052;51.050;3.716;2023-06-10T05:27:29;21.40;73.50
13960;DHT22;7052;51.050;3.716;2023-06-10T05:29:57;21.50;73.20
13960;DHT22;7052;51.050;3.716;2023-06-10T05:32:23;21.60;72.70
13960;DHT22;7052;51.050;3.716;2023-06-10T05:34:50;21.60;72.60
13960;DHT22;7052;51.050;3.716;2023-06-10T05:37:19;21.60;72.20
13960;DHT22;7052;51.050;3.716;2023-06-10T05:39:49;21.70;72.20
13960;DHT22;7052;51.050;3.716;2023-06-10T05:42:16;21.70;71.90
13960;DHT22;7052;51.050;3.716;2023-06-10T05:44:43;21.80;71.80
13960;DHT22;7052;51.050;3.716;2023-06-10T05:47:10;21.80;71.60
13960;DHT22;7052;51.050;3.716;2023-06-10T05:49:37;21.90;71.50
13960;DHT22;7052;51.050;3.716;2023-06-10T05:52:06;21.90;71.50
13960;DHT22;7052;51.050;3.716;2023-06-10T05:54:35;21.90;71.40
13960;DHT22;7052;51.050;3.716;2023-06-10T05:57:02;22.00;71.30
13960;DHT22;7052;51.050;3.716;2023-06-10T05:59:31;22.00;70.90
13960;DHT22;7052;51.050;3.716;2023-06-10T06:01:58;22.20;70.90
13960;DHT22;7052;51.050;3.716;2023-06-10T06:04:25;23.10;68.00
13960;DHT22;7052;51.050;3.716;2023-06-10T06:06:53;23.90;63.20
13960;DHT22;7052;51.050;3.716;2023-06-10T06:09:20;24.70;58.60
13960;DHT22;7052;51.050;3.716;2023-06-10T06:11:49;25.50;55.80
13960;DHT22;7052;51.050;3.716;2023-06-10T06:14:16;26.10;54.30
13960;DHT22;7052;51.050;3.716;2023-06-10T06:16:43;26.80;51.80
13960;DHT22;7052;51.050;3.716;2023-06-10T06:19:10;27.20;50.70
13960;DHT22;7052;51.050;3.716;2023-06-10T06:21:37;27.40;50.20
13960;DHT22;7052;51.050;3.716;2023-06-10T06:24:04;27.80;49.20
13960;DHT22;7052;51.050;3.716;2023-06-10T06:26:31;28.00;48.40
13960;DHT22;7052;51.050;3.716;2023-06-10T06:29:00;28.10;48.00
13960;DHT22;7052;51.050;3.716;2023-06-10T06:31:27;28.30;47.70
13960;DHT22;7052;51.050;3.716;2023-06-10T06:33:53;28.50;46.90
13960;DHT22;7052;51.050;3.716;2023-06-10T06:36:21;28.50;46.90
13960;DHT22;7052;51.050;3.716;2023-06-10T06:38:48;28.60;46.70
13960;DHT22;7052;51.050;3.716;2023-06-10T06:41:15;28.70;46.40
13960;DHT22;7052;51.050;3.716;2023-06-10T06:43:42;28.90;46.00
13960;DHT22;7052;51.050;3.716;2023-06-10T06:46:10;29.00;45.80
13960;DHT22;7052;51.050;3.716;2023-06-10T06:48:41;28.90;45.90
13960;DHT22;7052;51.050;3.716;2023-06-10T06:51:08;28.90;45.80
13960;DHT22;7052;51.050;3.716;2023-06-10T06:53:39;29.10;45.50
13960;DHT22;7052;51.050;3.716;2023-06-10T06:56:09;29.10;45.10
13960;DHT22;7052;51.050;3.716;2023-06-10T06:58:36;29.20;45.10
13960;DHT22;7052;51.050;3.716;2023-06-10T07:01:03;29.40;44.70
13960;DHT22;7052;51.050;3.716;2023-06-10T07:03:32;29.40;44.60
13960;DHT22;7052;51.050;3.716;2023-06-10T07:05:59;29.40;45.10
13960;DHT22;7052;51.050;3.716;2023-06-10T07:08:41;29.50;44.40
13960;DHT22;7052;51.050;3.716;2023-06-10T07:11:14;29.50;44.00
13960;DHT22;7052;51.050;3.716;2023-06-10T07:13:47;29.50;43.90
13960;DHT22;7052;51.050;3.716;2023-06-10T07:16:22;29.50;44.00
13960;DHT22;7052;51.050;3.716;2023-06-10T07:18:52;29.50;44.20
13960;DHT22;7052;51.050;3.716;2023-06-10T07:21:26;29.60;44.00
13960;DHT22;7052;51.050;3.716;2023-06-10T07:23:54;29.60;43.50
13960;DHT22;7052;51.050;3.716;2023-06-10T07:26:30;29.70;43.40
13960;DHT22;7052;51.050;3.716;2023-06-10T07:28:57;29.70;43.30
13960;DHT22;7052;51.050;3.716;2023-06-10T07:31:24;29.70;43.20
13960;DHT22;7052;51.050;3.716;2023-06-10T07:33:56;29.50;43.30
13960;DHT22;7052;51.050;3.716;2023-06-10T07:36:23;29.50;43.50
13960;DHT22;7052;51.050;3.716;2023-06-10T07:38:52;29.40;43.40
13960;DHT22;7052;51.050;3.716;2023-06-10T07:41:20;29.40;43.60
13960;DHT22;7052;51.050;3.716;2023-06-10T07:43:49;29.40;43.70
13960;DHT22;7052;51.050;3.716;2023-06-10T07:46:20;29.30;43.60
13960;DHT22;7052;51.050;3.716;2023-06-10T07:49:03;29.30;43.70
13960;DHT22;7052;51.050;3.716;2023-06-10T07:51:30;29.10;44.00
13960;DHT22;7052;51.050;3.716;2023-06-10T07:53:58;29.10;44.20
13960;DHT22;7052;51.050;3.716;2023-06-10T07:56:25;29.00;44.40
13960;DHT22;7052;51.050;3.716;2023-06-10T07:58:52;28.90;44.40
13960;DHT22;7052;51.050;3.716;2023-06-10T08:01:19;28.90;44.50
13960;DHT22;7052;51.050;3.716;2023-06-10T08:03:46;28.80;44.50
13960;DHT22;7052;51.050;3.716;2023-06-10T08:06:15;28.70;44.80
13960;DHT22;7052;51.050;3.716;2023-06-10T08:08:43;28.50;45.50
13960;DHT22;7052;51.050;3.716;2023-06-10T08:11:11;28.50;44.90
13960;DHT22;7052;51.050;3.716;2023-06-10T08:13:38;28.30;45.20
13960;DHT22;7052;51.050;3.716;2023-06-10T08:16:07;28.10;45.40
13960;DHT22;7052;51.050;3.716;2023-06-10T08:18:34;28.00;45.40
13960;DHT22;7052;51.050;3.716;2023-06-10T08:21:02;27.90;45.50
13960;DHT22;7052;51.050;3.716;2023-06-10T08:23:32;27.80;45.70
13960;DHT22;7052;51.050;3.716;2023-06-10T08:25:59;27.70;45.90
13960;DHT22;7052;51.050;3.716;2023-06-10T08:28:29;27.60;45.90
13960;DHT22;7052;51.050;3.716;2023-06-10T08:30:58;27.50;46.00
13960;DHT22;7052;51.050;3.716;2023-06-10T08:33:25;27.50;45.70
13960;DHT22;7052;51.050;3.716;2023-06-10T08:35:58;27.50;45.10
13960;DHT22;7052;51.050;3.716;2023-06-10T08:38:26;27.50;44.90
13960;DHT22;7052;51.050;3.716;2023-06-10T08:41:00;27.50;45.30
13960;DHT22;7052;51.050;3.716;2023-06-10T08:43:33;27.50;45.50
13960;DHT22;7052;51.050;3.716;2023-06-10T08:46:01;27.60;45.50
13960;DHT22;7052;51.050;3.716;2023-06-10T08:48:29;27.60;45.10
13960;DHT22;7052;51.050;3.716;2023-06-10T08:50:58;27.60;45.10
13960;DHT22;7052;51.050;3.716;2023-06-10T08:53:30;27.60;44.70
13960;DHT22;7052;51.050;3.716;2023-06-10T08:56:01;27.70;44.30
13960;DHT22;7052;51.050;3.716;2023-06-10T08:58:29;27.70;44.60
13960;DHT22;7052;51.050;3.716;2023-06-10T09:00:58;27.70;44.60
13960;DHT22;7052;51.050;3.716;2023-06-10T09:03:29;27.70;44.60
13960;DHT22;7052;51.050;3.716;2023-06-10T09:05:56;27.80;44.50
13960;DHT22;7052;51.050;3.716;2023-06-10T09:08:24;27.80;44.70
13960;DHT22;7052;51.050;3.716;2023-06-10T09:10:51;27.90;44.20
13960;DHT22;7052;51.050;3.716;2023-06-10T09:13:20;28.00;44.20
13960;DHT22;7052;51.050;3.716;2023-06-10T09:15:48;28.10;44.50
13960;DHT22;7052;51.050;3.716;2023-06-10T09:18:17;28.10;44.50
13960;DHT22;7052;51.050;3.716;2023-06-10T09:20:47;28.20;44.50
13960;DHT22;7052;51.050;3.716;2023-06-10T09:23:15;28.20;44.00
13960;DHT22;7052;51.050;3.716;2023-06-10T09:25:43;28.30;43.80
13960;DHT22;7052;51.050;3.716;2023-06-10T09:28:13;28.40;43.30
13960;DHT22;7052;51.050;3.716;2023-06-10T09:30:43;28.50;43.30
13960;DHT22;7052;51.050;3.716;2023-06-10T09:33:13;28.50;43.10
13960;DHT22;7052;51.050;3.716;2023-06-10T09:35:45;28.60;43.50
13960;DHT22;7052;51.050;3.716;2023-06-10T09:38:16;28.70;43.60
13960;DHT22;7052;51.050;3.716;2023-06-10T09:40:51;28.80;43.20
13960;DHT22;7052;51.050;3.716;2023-06-10T09:43:19;28.80;42.40
13960;DHT22;7052;51.050;3.716;2023-06-10T09:45:49;28.90;42.20
13960;DHT22;7052;51.050;3.716;2023-06-10T09:48:18;28.90;42.70
13960;DHT22;7052;51.050;3.716;2023-06-10T09:50:46;29.00;42.50
13960;DHT22;7052;51.050;3.716;2023-06-10T09:53:13;29.00;42.20
13960;DHT22;7052;51.050;3.716;2023-06-10T09:55:41;29.10;42.00
13960;DHT22;7052;51.050;3.716;2023-06-10T09:58:08;29.20;41.70
13960;DHT22;7052;51.050;3.716;2023-06-10T10:00:35;29.30;41.70
13960;DHT22;7052;51.050;3.716;2023-06-10T10:03:07;29.30;41.70
13960;DHT22;7052;51.050;3.716;2023-06-10T10:05:34;29.50;41.50
13960;DHT22;7052;51.050;3.716;2023-06-10T10:08:01;29.60;41.20
13960;DHT22;7052;51.050;3.716;2023-06-10T10:10:28;29.60;40.20
13960;DHT22;7052;51.050;3.716;2023-06-10T10:12:56;29.70;40.20
13960;DHT22;7052;51.050;3.716;2023-06-10T10:15:28;29.70;40.00
13960;DHT22;7052;51.050;3.716;2023-06-10T10:18:06;29.80;40.00
13960;DHT22;7052;51.050;3.716;2023-06-10T10:20:39;29.80;39.80
13960;DHT22;7052;51.050;3.716;2023-06-10T10:23:08;29.90;39.90
13960;DHT22;7052;51.050;3.716;2023-06-10T10:25:41;30.00;39.40
13960;DHT22;7052;51.050;3.716;2023-06-10T10:28:11;30.10;39.50
13960;DHT22;7052;51.050;3.716;2023-06-10T10:30:45;30.20;39.10
13960;DHT22;7052;51.050;3.716;2023-06-10T10:33:18;30.10;39.00
13960;DHT22;7052;51.050;3.716;2023-06-10T10:35:52;30.20;38.80
13960;DHT22;7052;51.050;3.716;2023-06-10T10:38:19;30.20;38.60
13960;DHT22;7052;51.050;3.716;2023-06-10T10:40:49;30.20;38.30
13960;DHT22;7052;51.050;3.716;2023-06-10T10:43:16;30.30;37.70
13960;DHT22;7052;51.050;3.716;2023-06-10T10:45:46;30.40;37.10
13960;DHT22;7052;51.050;3.716;2023-06-10T10:48:14;30.50;37.50
13960;DHT22;7052;51.050;3.716;2023-06-10T10:50:41;30.50;37.50
13960;DHT22;7052;51.050;3.716;2023-06-10T10:53:10;30.60;36.80
13960;DHT22;7052;51.050;3.716;2023-06-10T10:55:37;30.70;36.00
13960;DHT22;7052;51.050;3.716;2023-06-10T10:58:07;30.70;35.60
13960;DHT22;7052;51.050;3.716;2023-06-10T11:00:35;30.70;35.40
13960;DHT22;7052;51.050;3.716;2023-06-10T11:03:06;30.80;34.80
13960;DHT22;7052;51.050;3.716;2023-06-10T11:05:39;30.80;34.20
13960;DHT22;7052;51.050;3.716;2023-06-10T11:08:11;30.80;34.20
13960;DHT22;7052;51.050;3.716;2023-06-10T11:10:39;30.80;34.30
13960;DHT22;7052;51.050;3.716;2023-06-10T11:13:07;30.90;34.20
13960;DHT22;7052;51.050;3.716;2023-06-10T11:15:38;30.90;34.50
13960;DHT22;7052;51.050;3.716;2023-06-10T11:18:22;30.90;34.50
13960;DHT22;7052;51.050;3.716;2023-06-10T11:20:58;31.00;34.00
13960;DHT22;7052;51.050;3.716;2023-06-10T11:23:39;31.10;33.80
13960;DHT22;7052;51.050;3.716;2023-06-10T11:26:20;31.20;33.30
13960;DHT22;7052;51.050;3.716;2023-06-10T11:29:04;31.20;33.40
13960;DHT22;7052;51.050;3.716;2023-06-10T11:31:32;31.30;33.00
13960;DHT22;7052;51.050;3.716;2023-06-10T11:34:01;31.30;33.20
13960;DHT22;7052;51.050;3.716;2023-06-10T11:36:31;31.30;33.00
13960;DHT22;7052;51.050;3.716;2023-06-10T11:39:00;31.30;32.70
13960;DHT22;7052;51.050;3.716;2023-06-10T11:41:29;31.40;32.60
13960;DHT22;7052;51.050;3.716;2023-06-10T11:44:02;31.50;32.50
13960;DHT22;7052;51.050;3.716;2023-06-10T11:46:30;31.60;32.50
13960;DHT22;7052;51.050;3.716;2023-06-10T11:49:00;31.80;32.40
13960;DHT22;7052;51.050;3.716;2023-06-10T11:51:30;31.90;32.50
13960;DHT22;7052;51.050;3.716;2023-06-10T11:53:56;31.90;32.20
13960;DHT22;7052;51.050;3.716;2023-06-10T11:56:26;32.00;31.10
13960;DHT22;7052;51.050;3.716;2023-06-10T11:58:54;32.00;31.20
13960;DHT22;7052;51.050;3.716;2023-06-10T12:01:24;32.10;30.70
13960;DHT22;7052;51.050;3.716;2023-06-10T12:03:59;32.20;30.50
13960;DHT22;7052;51.050;3.716;2023-06-10T12:06:37;32.20;30.00
13960;DHT22;7052;51.050;3.716;2023-06-10T12:09:05;32.20;30.00
13960;DHT22;7052;51.050;3.716;2023-06-10T12:11:34;32.30;30.10
13960;DHT22;7052;51.050;3.716;2023-06-10T12:14:03;32.40;30.20
13960;DHT22;7052;51.050;3.716;2023-06-10T12:16:32;32.50;29.60
13960;DHT22;7052;51.050;3.716;2023-06-10T12:19:03;32.40;29.40
13960;DHT22;7052;51.050;3.716;2023-06-10T12:21:32;32.50;29.60
13960;DHT22;7052;51.050;3.716;2023-06-10T12:24:05;32.40;29.20
13960;DHT22;7052;51.050;3.716;2023-06-10T12:26:41;32.30;29.20
13960;DHT22;7052;51.050;3.716;2023-06-10T12:29:21;32.30;30.00
13960;DHT22;7052;51.050;3.716;2023-06-10T12:32:01;32.30;29.50
13960;DHT22;7052;51.050;3.716;2023-06-10T12:34:35;32.40;29.30
13960;DHT22;7052;51.050;3.716;2023-06-10T12:37:04;32.40;29.50
13960;DHT22;7052;51.050;3.716;2023-06-10T12:39:41;32.50;29.60
13960;DHT22;7052;51.050;3.716;2023-06-10T12:42:12;32.50;29.40
13960;DHT22;7052;51.050;3.716;2023-06-10T12:44:40;32.50;29.40
13960;DHT22;7052;51.050;3.716;2023-06-10T12:47:10;32.60;29.50
13960;DHT22;7052;51.050;3.716;2023-06-10T12:49:39;32.60;29.40
13960;DHT22;7052;51.050;3.716;2023-06-10T12:52:07;32.50;29.60
13960;DHT22;7052;51.050;3.716;2023-06-10T12:54:35;32.60;29.60
13960;DHT22;7052;51.050;3.716;2023-06-10T12:57:05;32.70;29.60
13960;DHT22;7052;51.050;3.716;2023-06-10T12:59:33;32.60;29.50
13960;DHT22;7052;51.050;3.716;2023-06-10T13:02:00;32.80;29.70
13960;DHT22;7052;51.050;3.716;2023-06-10T13:04:27;32.80;29.40
13960;DHT22;7052;51.050;3.716;2023-06-10T13:06:54;32.70;29.20
13960;DHT22;7052;51.050;3.716;2023-06-10T13:09:21;32.80;29.30
13960;DHT22;7052;51.050;3.716;2023-06-10T13:11:50;32.70;29.20
13960;DHT22;7052;51.050;3.716;2023-06-10T13:14:18;32.60;29.40
13960;DHT22;7052;51.050;3.716;2023-06-10T13:16:47;32.60;29.30
13960;DHT22;7052;51.050;3.716;2023-06-10T13:19:14;32.60;29.30
13960;DHT22;7052;51.050;3.716;2023-06-10T13:21:43;32.50;29.30
13960;DHT22;7052;51.050;3.716;2023-06-10T13:24:12;32.60;29.20
13960;DHT22;7052;51.050;3.716;2023-06-10T13:26:40;32.60;29.20
13960;DHT22;7052;51.050;3.716;2023-06-10T13:29:07;32.60;29.00
13960;DHT22;7052;51.050;3.716;2023-06-10T13:31:43;32.60;29.20
13960;DHT22;7052;51.050;3.716;2023-06-10T13:34:12;32.60;29.10
13960;DHT22;7052;51.050;3.716;2023-06-10T13:36:39;32.60;29.10
13960;DHT22;7052;51.050;3.716;2023-06-10T13:39:05;32.50;29.00
13960;DHT22;7052;51.050;3.716;2023-06-10T13:41:32;32.50;29.20
13960;DHT22;7052;51.050;3.716;2023-06-10T13:44:00;32.50;29.30
13960;DHT22;7052;51.050;3.716;2023-06-10T13:46:26;32.50;29.20
13960;DHT22;7052;51.050;3.716;2023-06-10T13:48:53;32.50;29.30
13960;DHT22;7052;51.050;3.716;2023-06-10T13:51:23;32.50;29.20
13960;DHT22;7052;51.050;3.716;2023-06-10T13:53:50;32.50;29.30
13960;DHT22;7052;51.050;3.716;2023-06-10T13:56:20;32.50;29.30
13960;DHT22;7052;51.050;3.716;2023-06-10T13:58:48;32.50;29.40
13960;DHT22;7052;51.050;3.716;2023-06-10T14:01:15;32.60;29.40
13960;DHT22;7052;51.050;3.716;2023-06-10T14:03:42;32.60;29.40
13960;DHT22;7052;51.050;3.716;2023-06-10T14:06:11;32.60;29.50
13960;DHT22;7052;51.050;3.716;2023-06-10T14:08:48;32.60;29.50
13960;DHT22;7052;51.050;3.716;2023-06-10T14:11:15;32.80;29.40
13960;DHT22;7052;51.050;3.716;2023-06-10T14:13:42;33.00;29.30
13960;DHT22;7052;51.050;3.716;2023-06-10T14:16:12;33.10;29.00
13960;DHT22;7052;51.050;3.716;2023-06-10T14:18:39;33.20;29.10
13960;DHT22;7052;51.050;3.716;2023-06-10T14:21:07;33.40;29.10
13960;DHT22;7052;51.050;3.716;2023-06-10T14:23:35;33.40;28.90
13960;DHT22;7052;51.050;3.716;2023-06-10T14:26:05;33.40;29.00
13960;DHT22;7052;51.050;3.716;2023-06-10T14:28:34;33.40;29.10
13960;DHT22;7052;51.050;3.716;2023-06-10T14:31:01;33.50;29.20
13960;DHT22;7052;51.050;3.716;2023-06-10T14:33:29;33.60;29.00
13960;DHT22;7052;51.050;3.716;2023-06-10T14:35:57;33.50;28.90
13960;DHT22;7052;51.050;3.716;2023-06-10T14:38:24;33.40;28.60
13960;DHT22;7052;51.050;3.716;2023-06-10T14:40:52;33.10;29.00
13960;DHT22;7052;51.050;3.716;2023-06-10T14:43:20;32.80;29.30
13960;DHT22;7052;51.050;3.716;2023-06-10T14:45:47;32.60;29.60
13960;DHT22;7052;51.050;3.716;2023-06-10T14:48:16;32.60;29.70
13960;DHT22;7052;51.050;3.716;2023-06-10T14:50:43;32.70;29.50
13960;DHT22;7052;51.050;3.716;2023-06-10T14:53:16;32.80;29.60
13960;DHT22;7052;51.050;3.716;2023-06-10T14:55:45;33.00;29.30
13960;DHT22;7052;51.050;3.716;2023-06-10T14:58:12;33.20;28.90
13960;DHT22;7052;51.050;3.716;2023-06-10T15:00:40;33.20;28.60
13960;DHT22;7052;51.050;3.716;2023-06-10T15:03:07;33.10;28.80
13960;DHT22;7052;51.050;3.716;2023-06-10T15:05:35;33.10;28.90
13960;DHT22;7052;51.050;3.716;2023-06-10T15:08:04;33.20;28.90
13960;DHT22;7052;51.050;3.716;2023-06-10T15:10:31;33.30;28.90
13960;DHT22;7052;51.050;3.716;2023-06-10T15:12:58;33.40;28.30
13960;DHT22;7052;51.050;3.716;2023-06-10T15:15:26;33.40;28.30
13960;DHT22;7052;51.050;3.716;2023-06-10T15:17:54;33.30;28.40
13960;DHT22;7052;51.050;3.716;2023-06-10T15:20:21;33.30;28.50
13960;DHT22;7052;51.050;3.716;2023-06-10T15:22:48;33.30;28.50
13960;DHT22;7052;51.050;3.716;2023-06-10T15:25:15;33.20;28.60
13960;DHT22;7052;51.050;3.716;2023-06-10T15:27:42;33.20;29.00
13960;DHT22;7052;51.050;3.716;2023-06-10T15:30:10;33.10;28.40
13960;DHT22;7052;51.050;3.716;2023-06-10T15:32:37;33.00;28.60
13960;DHT22;7052;51.050;3.716;2023-06-10T15:35:06;33.00;28.60
13960;DHT22;7052;51.050;3.716;2023-06-10T15:37:33;33.00;28.80
13960;DHT22;7052;51.050;3.716;2023-06-10T15:40:01;33.10;28.90
13960;DHT22;7052;51.050;3.716;2023-06-10T15:42:28;32.90;28.80
13960;DHT22;7052;51.050;3.716;2023-06-10T15:44:55;32.70;29.00
13960;DHT22;7052;51.050;3.716;2023-06-10T15:47:22;32.40;29.30
13960;DHT22;7052;51.050;3.716;2023-06-10T15:49:49;32.20;29.30
13960;DHT22;7052;51.050;3.716;2023-06-10T15:52:17;32.20;29.40
13960;DHT22;7052;51.050;3.716;2023-06-10T15:54:44;32.30;29.20
13960;DHT22;7052;51.050;3.716;2023-06-10T15:57:11;32.30;29.10